sensor_id;sensor_type;location;lat;lon;timestamp;P1;durP1;ratioP1;P2;durP2;ratioP2
61036;SDS011;72210;47.076;15.430;2024-01-30T00:01:58;0.90;;;0.70;;
61036;SDS011;72210;47.076;15.430;2024-01-30T00:04:26;0.80;;;0.60;;
61036;SDS011;72210;47.076;15.430;2024-01-30T00:06:53;0.90;;;0.70;;
61036;SDS011;72210;47.076;15.430;2024-01-30T00:09:21;0.90;;;0.70;;
61036;SDS011;72210;47.076;15.430;2024-01-30T00:11:48;0.82;;;0.60;;
61036;SDS011;72210;47.076;15.430;2024-01-30T00:14:16;0.80;;;0.70;;
61036;SDS011;72210;47.076;15.430;2024-01-30T00:16:45;0.80;;;0.60;;
61036;SDS011;72210;47.076;15.430;2024-01-30T00:19:12;0.80;;;0.70;;
61036;SDS011;72210;47.076;15.430;2024-01-30T00:21:39;0.80;;;0.60;;
61036;SDS011;72210;47.076;15.430;2024-01-30T00:24:06;0.80;;;0.70;;
61036;SDS011;72210;47.076;15.430;2024-01-30T00:26:33;0.90;;;0.70;;
61036;SDS011;72210;47.076;15.430;2024-01-30T00:29:03;0.80;;;0.70;;
61036;SDS011;72210;47.076;15.430;2024-01-30T00:31:30;0.80;;;0.70;;
61036;SDS011;72210;47.076;15.430;2024-01-30T00:33:59;0.80;;;0.60;;
61036;SDS011;72210;47.076;15.430;2024-01-30T00:36:27;0.80;;;0.63;;
61036;SDS011;72210;47.076;15.430;2024-01-30T00:38:54;0.80;;;0.60;;
61036;SDS011;72210;47.076;15.430;2024-01-30T00:41:22;0.80;;;0.70;;
61036;SDS011;72210;47.076;15.430;2024-01-30T00:43:49;1.00;;;0.75;;
61036;SDS011;72210;47.076;15.430;2024-01-30T00:46:17;0.90;;;0.60;;
61036;SDS011;72210;47.076;15.430;2024-01-30T00:48:44;0.80;;;0.60;;
61036;SDS011;72210;47.076;15.430;2024-01-30T00:51:13;0.80;;;0.70;;
61036;SDS011;72210;47.076;15.430;2024-01-30T00:53:41;0.85;;;0.70;;
61036;SDS011;72210;47.076;15.430;2024-01-30T00:56:08;0.80;;;0.63;;
61036;SDS011;72210;47.076;15.430;2024-01-30T00:58:35;0.80;;;0.70;;
61036;SDS011;72210;47.076;15.430;2024-01-30T01:01:03;0.80;;;0.70;;
61036;SDS011;72210;47.076;15.430;2024-01-30T01:03:31;1.02;;;0.75;;
61036;SDS011;72210;47.076;15.430;2024-01-30T01:05:58;0.82;;;0.70;;
61036;SDS011;72210;47.076;15.430;2024-01-30T01:08:27;0.90;;;0.70;;
61036;SDS011;72210;47.076;15.430;2024-01-30T01:10:54;1.00;;;0.77;;
61036;SDS011;72210;47.076;15.430;2024-01-30T01:13:22;0.90;;;0.70;;
61036;SDS011;72210;47.076;15.430;2024-01-30T01:15:49;0.80;;;0.70;;
61036;SDS011;72210;47.076;15.430;2024-01-30T01:18:17;0.80;;;0.60;;
61036;SDS011;72210;47.076;15.430;2024-01-30T01:20:44;0.90;;;0.70;;
61036;SDS011;72210;47.076;15.430;2024-01-30T01:23:11;0.93;;;0.70;;
61036;SDS011;72210;47.076;15.430;2024-01-30T01:25:40;0.80;;;0.70;;
61036;SDS011;72210;47.076;15.430;2024-01-30T01:28:07;0.80;;;0.70;;
61036;SDS011;72210;47.076;15.430;2024-01-30T01:30:34;0.80;;;0.70;;
61036;SDS011;72210;47.076;15.430;2024-01-30T01:33:02;0.80;;;0.60;;
61036;SDS011;72210;47.076;15.430;2024-01-30T01:35:29;0.90;;;0.70;;
61036;SDS011;72210;47.076;15.430;2024-01-30T01:37:56;0.80;;;0.70;;
61036;SDS011;72210;47.076;15.430;2024-01-30T01:40:24;1.00;;;0.70;;
61036;SDS011;72210;47.076;15.430;2024-01-30T01:42:53;0.80;;;0.70;;
61036;SDS011;72210;47.076;15.430;2024-01-30T01:45:22;0.80;;;0.70;;
61036;SDS011;72210;47.076;15.430;2024-01-30T01:47:51;0.80;;;0.70;;
61036;SDS011;72210;47.076;15.430;2024-01-30T01:50:19;0.80;;;0.60;;
61036;SDS011;72210;47.076;15.430;2024-01-30T01:52:49;0.80;;;0.70;;
61036;SDS011;72210;47.076;15.430;2024-01-30T01:55:18;0.90;;;0.70;;
61036;SDS011;72210;47.076;15.430;2024-01-30T01:57:48;0.80;;;0.70;;
61036;SDS011;72210;47.076;15.430;2024-01-30T02:00:17;1.00;;;0.70;;
61036;SDS011;72210;47.076;15.430;2024-01-30T02:02:46;0.90;;;0.70;;
61036;SDS011;72210;47.076;15.430;2024-01-30T02:05:13;0.80;;;0.60;;
61036;SDS011;72210;47.076;15.430;2024-01-30T02:07:42;0.90;;;0.70;;
61036;SDS011;72210;47.076;15.430;2024-01-30T02:10:12;0.90;;;0.70;;
61036;SDS011;72210;47.076;15.430;2024-01-30T02:12:39;1.00;;;0.70;;
61036;SDS011;72210;47.076;15.430;2024-01-30T02:15:07;1.00;;;0.77;;
61036;SDS011;72210;47.076;15.430;2024-01-30T02:17:36;0.80;;;0.70;;
61036;SDS011;72210;47.076;15.430;2024-01-30T02:20:04;0.80;;;0.70;;
61036;SDS011;72210;47.076;15.430;2024-01-30T02:26:01;0.98;;;0.70;;
61036;SDS011;72210;47.076;15.430;2024-01-30T02:28:29;0.90;;;0.70;;
61036;SDS011;72210;47.076;15.430;2024-01-30T02:30:56;0.80;;;0.70;;
61036;SDS011;72210;47.076;15.430;2024-01-30T02:33:26;0.80;;;0.70;;
61036;SDS011;72210;47.076;15.430;2024-01-30T02:35:54;0.82;;;0.63;;
61036;SDS011;72210;47.076;15.430;2024-01-30T02:38:21;0.70;;;0.60;;
61036;SDS011;72210;47.076;15.430;2024-01-30T02:40:48;0.80;;;0.60;;
61036;SDS011;72210;47.076;15.430;2024-01-30T02:43:17;0.80;;;0.60;;
61036;SDS011;72210;47.076;15.430;2024-01-30T02:45:44;0.80;;;0.70;;
61036;SDS011;72210;47.076;15.430;2024-01-30T02:48:12;0.80;;;0.70;;
61036;SDS011;72210;47.076;15.430;2024-01-30T02:50:39;0.80;;;0.60;;
61036;SDS011;72210;47.076;15.430;2024-01-30T02:53:06;0.80;;;0.70;;
61036;SDS011;72210;47.076;15.430;2024-01-30T02:55:34;1.00;;;0.70;;
61036;SDS011;72210;47.076;15.430;2024-01-30T02:58:01;0.80;;;0.70;;
61036;SDS011;72210;47.076;15.430;2024-01-30T03:00:30;0.80;;;0.70;;
61036;SDS011;72210;47.076;15.430;2024-01-30T03:02:58;0.80;;;0.70;;
61036;SDS011;72210;47.076;15.430;2024-01-30T03:05:25;0.80;;;0.70;;
61036;SDS011;72210;47.076;15.430;2024-01-30T03:07:52;0.80;;;0.60;;
61036;SDS011;72210;47.076;15.430;2024-01-30T03:10:20;1.00;;;0.75;;
61036;SDS011;72210;47.076;15.430;2024-01-30T03:12:48;0.80;;;0.70;;
61036;SDS011;72210;47.076;15.430;2024-01-30T03:15:15;0.90;;;0.70;;
61036;SDS011;72210;47.076;15.430;2024-01-30T03:17:44;0.90;;;0.70;;
61036;SDS011;72210;47.076;15.430;2024-01-30T03:20:11;0.80;;;0.70;;
61036;SDS011;72210;47.076;15.430;2024-01-30T03:22:41;0.90;;;0.70;;
61036;SDS011;72210;47.076;15.430;2024-01-30T03:25:08;0.80;;;0.70;;
61036;SDS011;72210;47.076;15.430;2024-01-30T03:27:36;0.80;;;0.70;;
61036;SDS011;72210;47.076;15.430;2024-01-30T03:30:06;0.90;;;0.70;;
61036;SDS011;72210;47.076;15.430;2024-01-30T03:32:34;0.80;;;0.70;;
61036;SDS011;72210;47.076;15.430;2024-01-30T03:35:04;0.80;;;0.70;;
61036;SDS011;72210;47.076;15.430;2024-01-30T03:37:32;0.80;;;0.70;;
61036;SDS011;72210;47.076;15.430;2024-01-30T03:39:59;0.90;;;0.70;;
61036;SDS011;72210;47.076;15.430;2024-01-30T03:42:28;0.80;;;0.60;;
61036;SDS011;72210;47.076;15.430;2024-01-30T03:44:56;0.93;;;0.70;;
61036;SDS011;72210;47.076;15.430;2024-01-30T03:47:23;0.80;;;0.70;;
61036;SDS011;72210;47.076;15.430;2024-01-30T03:49:51;0.80;;;0.60;;
61036;SDS011;72210;47.076;15.430;2024-01-30T03:52:20;0.90;;;0.70;;
61036;SDS011;72210;47.076;15.430;2024-01-30T03:54:48;0.80;;;0.70;;
61036;SDS011;72210;47.076;15.430;2024-01-30T03:57:15;1.02;;;0.80;;
61036;SDS011;72210;47.076;15.430;2024-01-30T03:59:43;0.85;;;0.70;;
61036;SDS011;72210;47.076;15.430;2024-01-30T04:02:10;0.90;;;0.70;;
61036;SDS011;72210;47.076;15.430;2024-01-30T04:04:38;0.80;;;0.70;;
61036;SDS011;72210;47.076;15.430;2024-01-30T04:07:06;0.90;;;0.70;;
61036;SDS011;72210;47.076;15.430;2024-01-30T04:09:36;0.88;;;0.68;;
61036;SDS011;72210;47.076;15.430;2024-01-30T04:12:05;0.80;;;0.70;;
61036;SDS011;72210;47.076;15.430;2024-01-30T04:14:33;0.80;;;0.68;;
61036;SDS011;72210;47.076;15.430;2024-01-30T04:17:00;1.00;;;0.73;;
61036;SDS011;72210;47.076;15.430;2024-01-30T04:19:27;1.00;;;0.70;;
61036;SDS011;72210;47.076;15.430;2024-01-30T04:21:56;1.00;;;0.70;;
61036;SDS011;72210;47.076;15.430;2024-01-30T04:24:24;0.80;;;0.60;;
61036;SDS011;72210;47.076;15.430;2024-01-30T04:26:53;0.90;;;0.70;;
61036;SDS011;72210;47.076;15.430;2024-01-30T04:29:20;0.80;;;0.60;;
61036;SDS011;72210;47.076;15.430;2024-01-30T04:31:48;0.80;;;0.70;;
61036;SDS011;72210;47.076;15.430;2024-01-30T04:34:16;0.88;;;0.70;;
61036;SDS011;72210;47.076;15.430;2024-01-30T04:36:44;0.80;;;0.60;;
61036;SDS011;72210;47.076;15.430;2024-01-30T04:39:11;0.80;;;0.70;;
61036;SDS011;72210;47.076;15.430;2024-01-30T04:41:39;0.90;;;0.70;;
61036;SDS011;72210;47.076;15.430;2024-01-30T04:44:08;0.93;;;0.77;;
61036;SDS011;72210;47.076;15.430;2024-01-30T04:46:35;0.90;;;0.70;;
61036;SDS011;72210;47.076;15.430;2024-01-30T04:49:02;0.95;;;0.70;;
61036;SDS011;72210;47.076;15.430;2024-01-30T04:51:30;0.80;;;0.60;;
61036;SDS011;72210;47.076;15.430;2024-01-30T04:53:57;0.80;;;0.70;;
61036;SDS011;72210;47.076;15.430;2024-01-30T04:56:24;0.90;;;0.70;;
61036;SDS011;72210;47.076;15.430;2024-01-30T04:58:52;0.90;;;0.70;;
61036;SDS011;72210;47.076;15.430;2024-01-30T05:01:22;0.90;;;0.70;;
61036;SDS011;72210;47.076;15.430;2024-01-30T05:03:49;0.90;;;0.70;;
61036;SDS011;72210;47.076;15.430;2024-01-30T05:06:23;0.90;;;0.70;;
61036;SDS011;72210;47.076;15.430;2024-01-30T05:08:51;0.90;;;0.70;;
61036;SDS011;72210;47.076;15.430;2024-01-30T05:11:19;0.93;;;0.70;;
61036;SDS011;72210;47.076;15.430;2024-01-30T05:13:46;1.00;;;0.80;;
61036;SDS011;72210;47.076;15.430;2024-01-30T05:16:13;0.90;;;0.70;;
61036;SDS011;72210;47.076;15.430;2024-01-30T05:18:43;0.90;;;0.70;;
61036;SDS011;72210;47.076;15.430;2024-01-30T05:21:10;0.82;;;0.70;;
61036;SDS011;72210;47.076;15.430;2024-01-30T05:23:38;0.90;;;0.70;;
61036;SDS011;72210;47.076;15.430;2024-01-30T05:26:06;0.90;;;0.70;;
61036;SDS011;72210;47.076;15.430;2024-01-30T05:28:34;0.93;;;0.73;;
61036;SDS011;72210;47.076;15.430;2024-01-30T05:31:01;0.80;;;0.70;;
61036;SDS011;72210;47.076;15.430;2024-01-30T05:33:29;0.80;;;0.70;;
61036;SDS011;72210;47.076;15.430;2024-01-30T05:35:58;0.80;;;0.70;;
61036;SDS011;72210;47.076;15.430;2024-01-30T05:38:25;0.90;;;0.70;;
61036;SDS011;72210;47.076;15.430;2024-01-30T05:40:57;0.80;;;0.70;;
61036;SDS011;72210;47.076;15.430;2024-01-30T05:43:24;1.05;;;0.80;;
61036;SDS011;72210;47.076;15.430;2024-01-30T05:45:52;0.98;;;0.70;;
61036;SDS011;72210;47.076;15.430;2024-01-30T05:48:20;0.80;;;0.70;;
61036;SDS011;72210;47.076;15.430;2024-01-30T05:50:47;0.80;;;0.70;;
61036;SDS011;72210;47.076;15.430;2024-01-30T05:53:16;0.85;;;0.70;;
61036;SDS011;72210;47.076;15.430;2024-01-30T05:55:43;0.80;;;0.70;;
61036;SDS011;72210;47.076;15.430;2024-01-30T05:58:11;0.90;;;0.70;;
61036;SDS011;72210;47.076;15.430;2024-01-30T06:00:38;0.90;;;0.70;;
61036;SDS011;72210;47.076;15.430;2024-01-30T06:03:05;0.80;;;0.70;;
61036;SDS011;72210;47.076;15.430;2024-01-30T06:05:32;0.90;;;0.70;;
61036;SDS011;72210;47.076;15.430;2024-01-30T06:08:00;0.90;;;0.70;;
61036;SDS011;72210;47.076;15.430;2024-01-30T06:10:28;0.90;;;0.70;;
61036;SDS011;72210;47.076;15.430;2024-01-30T06:12:56;0.90;;;0.70;;
61036;SDS011;72210;47.076;15.430;2024-01-30T06:15:23;0.80;;;0.70;;
61036;SDS011;72210;47.076;15.430;2024-01-30T06:17:50;0.90;;;0.70;;
61036;SDS011;72210;47.076;15.430;2024-01-30T06:20:18;0.90;;;0.70;;
61036;SDS011;72210;47.076;15.430;2024-01-30T06:22:45;0.80;;;0.70;;
61036;SDS011;72210;47.076;15.430;2024-01-30T06:25:12;0.80;;;0.70;;
61036;SDS011;72210;47.076;15.430;2024-01-30T06:27:41;0.90;;;0.70;;
61036;SDS011;72210;47.076;15.430;2024-01-30T06:30:09;1.05;;;0.70;;
61036;SDS011;72210;47.076;15.430;2024-01-30T06:32:37;0.80;;;0.70;;
61036;SDS011;72210;47.076;15.430;2024-01-30T06:35:05;0.80;;;0.70;;
61036;SDS011;72210;47.076;15.430;2024-01-30T06:37:33;0.90;;;0.70;;
61036;SDS011;72210;47.076;15.430;2024-01-30T06:40:01;0.80;;;0.70;;
61036;SDS011;72210;47.076;15.430;2024-01-30T06:42:30;1.10;;;0.80;;
61036;SDS011;72210;47.076;15.430;2024-01-30T06:44:59;0.90;;;0.70;;
61036;SDS011;72210;47.076;15.430;2024-01-30T06:47:26;0.80;;;0.70;;
61036;SDS011;72210;47.076;15.430;2024-01-30T06:49:54;1.00;;;0.80;;
61036;SDS011;72210;47.076;15.430;2024-01-30T06:52:21;1.00;;;0.77;;
61036;SDS011;72210;47.076;15.430;2024-01-30T06:54:49;0.80;;;0.70;;
61036;SDS011;72210;47.076;15.430;2024-01-30T06:57:18;0.80;;;0.70;;
61036;SDS011;72210;47.076;15.430;2024-01-30T06:59:47;0.82;;;0.70;;
61036;SDS011;72210;47.076;15.430;2024-01-30T07:02:15;1.00;;;0.70;;
61036;SDS011;72210;47.076;15.430;2024-01-30T07:04:43;0.90;;;0.70;;
61036;SDS011;72210;47.076;15.430;2024-01-30T07:07:13;0.80;;;0.70;;
61036;SDS011;72210;47.076;15.430;2024-01-30T07:09:43;0.80;;;0.70;;
61036;SDS011;72210;47.076;15.430;2024-01-30T07:12:10;0.80;;;0.70;;
61036;SDS011;72210;47.076;15.430;2024-01-30T07:14:37;0.80;;;0.70;;
61036;SDS011;72210;47.076;15.430;2024-01-30T07:17:05;0.80;;;0.60;;
61036;SDS011;72210;47.076;15.430;2024-01-30T07:19:34;0.90;;;0.70;;
61036;SDS011;72210;47.076;15.430;2024-01-30T07:22:01;0.80;;;0.70;;
61036;SDS011;72210;47.076;15.430;2024-01-30T07:24:28;0.90;;;0.70;;
61036;SDS011;72210;47.076;15.430;2024-01-30T07:26:55;0.80;;;0.70;;
61036;SDS011;72210;47.076;15.430;2024-01-30T07:29:24;0.80;;;0.70;;
61036;SDS011;72210;47.076;15.430;2024-01-30T07:31:51;0.88;;;0.70;;
61036;SDS011;72210;47.076;15.430;2024-01-30T07:34:19;0.88;;;0.70;;
61036;SDS011;72210;47.076;15.430;2024-01-30T07:36:48;0.90;;;0.70;;
61036;SDS011;72210;47.076;15.430;2024-01-30T07:39:15;0.80;;;0.70;;
61036;SDS011;72210;47.076;15.430;2024-01-30T07:41:42;0.80;;;0.70;;
61036;SDS011;72210;47.076;15.430;2024-01-30T07:44:09;0.80;;;0.68;;
61036;SDS011;72210;47.076;15.430;2024-01-30T07:46:36;0.90;;;0.70;;
61036;SDS011;72210;47.076;15.430;2024-01-30T07:49:04;0.80;;;0.70;;
61036;SDS011;72210;47.076;15.430;2024-01-30T07:51:32;0.90;;;0.70;;
61036;SDS011;72210;47.076;15.430;2024-01-30T07:54:00;0.80;;;0.60;;
61036;SDS011;72210;47.076;15.430;2024-01-30T07:56:28;0.90;;;0.70;;
61036;SDS011;72210;47.076;15.430;2024-01-30T07:58:55;0.80;;;0.60;;
61036;SDS011;72210;47.076;15.430;2024-01-30T08:01:22;0.73;;;0.60;;
61036;SDS011;72210;47.076;15.430;2024-01-30T08:03:50;0.73;;;0.60;;
61036;SDS011;72210;47.076;15.430;2024-01-30T08:06:17;0.80;;;0.70;;
61036;SDS011;72210;47.076;15.430;2024-01-30T08:08:44;0.90;;;0.70;;
61036;SDS011;72210;47.076;15.430;2024-01-30T08:11:14;0.80;;;0.60;;
61036;SDS011;72210;47.076;15.430;2024-01-30T08:13:41;0.80;;;0.70;;
61036;SDS011;72210;47.076;15.430;2024-01-30T08:16:08;0.75;;;0.60;;
61036;SDS011;72210;47.076;15.430;2024-01-30T08:18:40;0.80;;;0.65;;
61036;SDS011;72210;47.076;15.430;2024-01-30T08:21:07;0.80;;;0.65;;
61036;SDS011;72210;47.076;15.430;2024-01-30T08:23:35;0.70;;;0.60;;
61036;SDS011;72210;47.076;15.430;2024-01-30T08:26:03;0.80;;;0.60;;
61036;SDS011;72210;47.076;15.430;2024-01-30T08:28:32;0.90;;;0.70;;
61036;SDS011;72210;47.076;15.430;2024-01-30T08:31:00;0.70;;;0.60;;
61036;SDS011;72210;47.076;15.430;2024-01-30T08:33:27;0.90;;;0.70;;
61036;SDS011;72210;47.076;15.430;2024-01-30T08:35:55;0.70;;;0.60;;
61036;SDS011;72210;47.076;15.430;2024-01-30T08:38:23;0.70;;;0.60;;
61036;SDS011;72210;47.076;15.430;2024-01-30T08:40:52;0.85;;;0.70;;
61036;SDS011;72210;47.076;15.430;2024-01-30T08:43:21;1.20;;;0.85;;
61036;SDS011;72210;47.076;15.430;2024-01-30T08:45:50;1.10;;;0.80;;
61036;SDS011;72210;47.076;15.430;2024-01-30T08:48:18;1.20;;;0.80;;
61036;SDS011;72210;47.076;15.430;2024-01-30T08:50:45;1.00;;;0.75;;
61036;SDS011;72210;47.076;15.430;2024-01-30T08:53:12;1.35;;;0.80;;
61036;SDS011;72210;47.076;15.430;2024-01-30T08:55:42;1.02;;;0.70;;
61036;SDS011;72210;47.076;15.430;2024-01-30T08:58:09;1.17;;;0.80;;
61036;SDS011;72210;47.076;15.430;2024-01-30T09:00:37;0.93;;;0.70;;
61036;SDS011;72210;47.076;15.430;2024-01-30T09:03:05;0.68;;;0.60;;
61036;SDS011;72210;47.076;15.430;2024-01-30T09:05:33;0.80;;;0.60;;
61036;SDS011;72210;47.076;15.430;2024-01-30T09:08:01;0.70;;;0.60;;
61036;SDS011;72210;47.076;15.430;2024-01-30T09:10:28;1.10;;;0.63;;
61036;SDS011;72210;47.076;15.430;2024-01-30T09:12:56;0.63;;;0.50;;
61036;SDS011;72210;47.076;15.430;2024-01-30T09:15:24;0.70;;;0.55;;
61036;SDS011;72210;47.076;15.430;2024-01-30T09:17:52;0.60;;;0.50;;
61036;SDS011;72210;47.076;15.430;2024-01-30T09:20:22;0.60;;;0.50;;
61036;SDS011;72210;47.076;15.430;2024-01-30T09:22:50;0.50;;;0.40;;
61036;SDS011;72210;47.076;15.430;2024-01-30T09:25:17;0.60;;;0.50;;
61036;SDS011;72210;47.076;15.430;2024-01-30T09:27:45;0.70;;;0.50;;
61036;SDS011;72210;47.076;15.430;2024-01-30T09:30:12;0.60;;;0.40;;
61036;SDS011;72210;47.076;15.430;2024-01-30T09:32:41;0.47;;;0.40;;
61036;SDS011;72210;47.076;15.430;2024-01-30T09:35:09;0.85;;;0.50;;
61036;SDS011;72210;47.076;15.430;2024-01-30T09:37:39;0.55;;;0.40;;
61036;SDS011;72210;47.076;15.430;2024-01-30T09:40:07;0.40;;;0.40;;
61036;SDS011;72210;47.076;15.430;2024-01-30T09:42:35;0.45;;;0.40;;
61036;SDS011;72210;47.076;15.430;2024-01-30T09:45:04;0.77;;;0.50;;
61036;SDS011;72210;47.076;15.430;2024-01-30T09:47:32;0.50;;;0.40;;
61036;SDS011;72210;47.076;15.430;2024-01-30T09:50:07;0.45;;;0.40;;
61036;SDS011;72210;47.076;15.430;2024-01-30T09:52:35;0.35;;;0.30;;
61036;SDS011;72210;47.076;15.430;2024-01-30T09:55:05;1.27;;;0.50;;
61036;SDS011;72210;47.076;15.430;2024-01-30T09:57:33;0.30;;;0.30;;
61036;SDS011;72210;47.076;15.430;2024-01-30T10:00:01;0.35;;;0.30;;
61036;SDS011;72210;47.076;15.430;2024-01-30T10:02:29;0.30;;;0.30;;
61036;SDS011;72210;47.076;15.430;2024-01-30T10:04:58;0.43;;;0.40;;
61036;SDS011;72210;47.076;15.430;2024-01-30T10:07:27;0.40;;;0.40;;
61036;SDS011;72210;47.076;15.430;2024-01-30T10:09:54;0.43;;;0.40;;
61036;SDS011;72210;47.076;15.430;2024-01-30T10:12:25;0.40;;;0.40;;
61036;SDS011;72210;47.076;15.430;2024-01-30T10:14:53;0.30;;;0.30;;
61036;SDS011;72210;47.076;15.430;2024-01-30T10:17:24;0.40;;;0.40;;
61036;SDS011;72210;47.076;15.430;2024-01-30T10:19:59;0.30;;;0.30;;
61036;SDS011;72210;47.076;15.430;2024-01-30T10:22:28;0.40;;;0.30;;
61036;SDS011;72210;47.076;15.430;2024-01-30T10:24:55;0.32;;;0.32;;
61036;SDS011;72210;47.076;15.430;2024-01-30T10:27:26;0.40;;;0.40;;
61036;SDS011;72210;47.076;15.430;2024-01-30T10:29:53;0.60;;;0.50;;
61036;SDS011;72210;47.076;15.430;2024-01-30T10:32:21;0.40;;;0.40;;
61036;SDS011;72210;47.076;15.430;2024-01-30T10:34:48;0.35;;;0.30;;
61036;SDS011;72210;47.076;15.430;2024-01-30T10:37:16;0.40;;;0.40;;
61036;SDS011;72210;47.076;15.430;2024-01-30T10:39:45;0.47;;;0.40;;
61036;SDS011;72210;47.076;15.430;2024-01-30T10:42:17;0.50;;;0.40;;
61036;SDS011;72210;47.076;15.430;2024-01-30T10:44:56;0.40;;;0.40;;
61036;SDS011;72210;47.076;15.430;2024-01-30T10:47:27;0.43;;;0.32;;
61036;SDS011;72210;47.076;15.430;2024-01-30T10:49:55;0.40;;;0.40;;
61036;SDS011;72210;47.076;15.430;2024-01-30T10:52:27;0.30;;;0.30;;
61036;SDS011;72210;47.076;15.430;2024-01-30T10:54:56;0.55;;;0.40;;
61036;SDS011;72210;47.076;15.430;2024-01-30T10:57:24;0.50;;;0.40;;
61036;SDS011;72210;47.076;15.430;2024-01-30T10:59:55;0.68;;;0.40;;
61036;SDS011;72210;47.076;15.430;2024-01-30T11:02:25;0.30;;;0.30;;
61036;SDS011;72210;47.076;15.430;2024-01-30T11:04:57;0.30;;;0.30;;
61036;SDS011;72210;47.076;15.430;2024-01-30T11:07:26;0.30;;;0.30;;
61036;SDS011;72210;47.076;15.430;2024-01-30T11:09:59;0.40;;;0.40;;
61036;SDS011;72210;47.076;15.430;2024-01-30T11:12:28;0.40;;;0.30;;
61036;SDS011;72210;47.076;15.430;2024-01-30T11:15:05;0.50;;;0.40;;
61036;SDS011;72210;47.076;15.430;2024-01-30T11:17:41;0.28;;;0.20;;
61036;SDS011;72210;47.076;15.430;2024-01-30T11:20:19;0.50;;;0.40;;
61036;SDS011;72210;47.076;15.430;2024-01-30T11:22:47;0.68;;;0.40;;
61036;SDS011;72210;47.076;15.430;2024-01-30T11:25:17;0.73;;;0.38;;
61036;SDS011;72210;47.076;15.430;2024-01-30T11:27:47;0.40;;;0.30;;
61036;SDS011;72210;47.076;15.430;2024-01-30T11:30:24;0.57;;;0.40;;
61036;SDS011;72210;47.076;15.430;2024-01-30T11:33:01;0.40;;;0.30;;
61036;SDS011;72210;47.076;15.430;2024-01-30T11:35:30;0.40;;;0.38;;
61036;SDS011;72210;47.076;15.430;2024-01-30T11:37:59;0.40;;;0.30;;
61036;SDS011;72210;47.076;15.430;2024-01-30T11:40:27;0.50;;;0.30;;
61036;SDS011;72210;47.076;15.430;2024-01-30T11:42:55;0.43;;;0.40;;
61036;SDS011;72210;47.076;15.430;2024-01-30T11:45:24;0.50;;;0.40;;
61036;SDS011;72210;47.076;15.430;2024-01-30T11:47:53;0.55;;;0.40;;
61036;SDS011;72210;47.076;15.430;2024-01-30T11:50:21;0.30;;;0.30;;
61036;SDS011;72210;47.076;15.430;2024-01-30T11:52:49;0.32;;;0.22;;
61036;SDS011;72210;47.076;15.430;2024-01-30T11:55:17;0.30;;;0.20;;
61036;SDS011;72210;47.076;15.430;2024-01-30T11:57:46;0.30;;;0.20;;
61036;SDS011;72210;47.076;15.430;2024-01-30T12:00:14;0.30;;;0.30;;
61036;SDS011;72210;47.076;15.430;2024-01-30T12:02:48;0.30;;;0.20;;
61036;SDS011;72210;47.076;15.430;2024-01-30T12:05:16;0.30;;;0.20;;
61036;SDS011;72210;47.076;15.430;2024-01-30T12:07:46;0.50;;;0.30;;
61036;SDS011;72210;47.076;15.430;2024-01-30T12:10:14;0.30;;;0.30;;
61036;SDS011;72210;47.076;15.430;2024-01-30T12:12:42;0.20;;;0.20;;
61036;SDS011;72210;47.076;15.430;2024-01-30T12:15:11;0.45;;;0.30;;
61036;SDS011;72210;47.076;15.430;2024-01-30T12:17:39;0.30;;;0.20;;
61036;SDS011;72210;47.076;15.430;2024-01-30T12:20:14;0.30;;;0.20;;
61036;SDS011;72210;47.076;15.430;2024-01-30T12:22:45;0.10;;;0.10;;
61036;SDS011;72210;47.076;15.430;2024-01-30T12:25:15;0.10;;;0.10;;
61036;SDS011;72210;47.076;15.430;2024-01-30T12:27:44;0.30;;;0.10;;
61036;SDS011;72210;47.076;15.430;2024-01-30T12:30:13;0.10;;;0.10;;
61036;SDS011;72210;47.076;15.430;2024-01-30T12:32:40;0.10;;;0.10;;
61036;SDS011;72210;47.076;15.430;2024-01-30T12:35:11;0.10;;;0.10;;
61036;SDS011;72210;47.076;15.430;2024-01-30T12:37:40;0.55;;;0.20;;
61036;SDS011;72210;47.076;15.430;2024-01-30T12:40:10;0.30;;;0.20;;
61036;SDS011;72210;47.076;15.430;2024-01-30T12:42:38;0.30;;;0.20;;
61036;SDS011;72210;47.076;15.430;2024-01-30T12:45:06;0.30;;;0.20;;
61036;SDS011;72210;47.076;15.430;2024-01-30T12:47:34;0.70;;;0.30;;
61036;SDS011;72210;47.076;15.430;2024-01-30T12:50:02;0.32;;;0.30;;
61036;SDS011;72210;47.076;15.430;2024-01-30T12:52:32;0.30;;;0.30;;
61036;SDS011;72210;47.076;15.430;2024-01-30T12:55:01;0.30;;;0.30;;
61036;SDS011;72210;47.076;15.430;2024-01-30T12:57:28;0.30;;;0.30;;
61036;SDS011;72210;47.076;15.430;2024-01-30T12:59:55;0.30;;;0.30;;
61036;SDS011;72210;47.076;15.430;2024-01-30T13:02:22;0.50;;;0.38;;
61036;SDS011;72210;47.076;15.430;2024-01-30T13:04:50;0.45;;;0.30;;
61036;SDS011;72210;47.076;15.430;2024-01-30T13:07:18;0.30;;;0.30;;
61036;SDS011;72210;47.076;15.430;2024-01-30T13:09:48;0.32;;;0.30;;
61036;SDS011;72210;47.076;15.430;2024-01-30T13:12:15;0.32;;;0.30;;
61036;SDS011;72210;47.076;15.430;2024-01-30T13:14:42;0.30;;;0.30;;
61036;SDS011;72210;47.076;15.430;2024-01-30T13:17:09;0.60;;;0.30;;
61036;SDS011;72210;47.076;15.430;2024-01-30T13:19:37;0.32;;;0.30;;
61036;SDS011;72210;47.076;15.430;2024-01-30T13:22:05;0.32;;;0.30;;
61036;SDS011;72210;47.076;15.430;2024-01-30T13:24:32;0.40;;;0.40;;
61036;SDS011;72210;47.076;15.430;2024-01-30T13:27:01;0.50;;;0.40;;
61036;SDS011;72210;47.076;15.430;2024-01-30T13:29:31;0.40;;;0.30;;
61036;SDS011;72210;47.076;15.430;2024-01-30T13:31:58;0.40;;;0.40;;
61036;SDS011;72210;47.076;15.430;2024-01-30T13:34:26;0.30;;;0.30;;
61036;SDS011;72210;47.076;15.430;2024-01-30T13:36:53;0.50;;;0.40;;
61036;SDS011;72210;47.076;15.430;2024-01-30T13:39:22;0.50;;;0.40;;
61036;SDS011;72210;47.076;15.430;2024-01-30T13:41:55;0.40;;;0.32;;
61036;SDS011;72210;47.076;15.430;2024-01-30T13:44:24;0.40;;;0.40;;
61036;SDS011;72210;47.076;15.430;2024-01-30T13:46:52;0.50;;;0.40;;
61036;SDS011;72210;47.076;15.430;2024-01-30T13:49:20;0.50;;;0.40;;
61036;SDS011;72210;47.076;15.430;2024-01-30T13:51:47;0.43;;;0.40;;
61036;SDS011;72210;47.076;15.430;2024-01-30T13:54:15;0.50;;;0.40;;
61036;SDS011;72210;47.076;15.430;2024-01-30T13:56:42;0.65;;;0.50;;
61036;SDS011;72210;47.076;15.430;2024-01-30T13:59:09;0.50;;;0.40;;
61036;SDS011;72210;47.076;15.430;2024-01-30T14:01:41;0.60;;;0.43;;
61036;SDS011;72210;47.076;15.430;2024-01-30T14:04:09;0.50;;;0.40;;
61036;SDS011;72210;47.076;15.430;2024-01-30T14:06:39;0.88;;;0.47;;
61036;SDS011;72210;47.076;15.430;2024-01-30T14:09:18;0.50;;;0.40;;
61036;SDS011;72210;47.076;15.430;2024-01-30T14:11:46;0.50;;;0.40;;
61036;SDS011;72210;47.076;15.430;2024-01-30T14:14:14;0.43;;;0.40;;
61036;SDS011;72210;47.076;15.430;2024-01-30T14:16:48;0.43;;;0.40;;
61036;SDS011;72210;47.076;15.430;2024-01-30T14:19:15;0.50;;;0.50;;
61036;SDS011;72210;47.076;15.430;2024-01-30T14:21:43;0.70;;;0.50;;
61036;SDS011;72210;47.076;15.430;2024-01-30T14:24:11;0.60;;;0.43;;
61036;SDS011;72210;47.076;15.430;2024-01-30T14:26:38;0.50;;;0.40;;
61036;SDS011;72210;47.076;15.430;2024-01-30T14:29:06;0.30;;;0.30;;
61036;SDS011;72210;47.076;15.430;2024-01-30T14:31:34;0.40;;;0.40;;
61036;SDS011;72210;47.076;15.430;2024-01-30T14:34:03;0.30;;;0.30;;
61036;SDS011;72210;47.076;15.430;2024-01-30T14:36:30;0.30;;;0.30;;
61036;SDS011;72210;47.076;15.430;2024-01-30T14:38:58;0.30;;;0.30;;
61036;SDS011;72210;47.076;15.430;2024-01-30T14:41:25;0.40;;;0.30;;
61036;SDS011;72210;47.076;15.430;2024-01-30T14:43:53;0.30;;;0.20;;